Time;durP1;ratioP1;P1;durP2;ratioP2;P2;SDS_P1;SDS_P2;PMS_P1;PMS_P2;Temp;Humidity;BMP_temperature;BMP_pressure;BME280_temperature;BME280_humidity;BME280_pressure;Samples;Min_cycle;Max_cycle;Signal;HPM_P1;HPM_P2
2021/12/11 00:00:54;;;;;;;0.70;0.40;;;;;;;;;;5085098;28;20034;-33
2021/12/11 00:03:28;;;;;;;0.63;0.40;;;;;;;;;;5087809;28;20500;-34
2021/12/11 00:06:15;;;;;;;0.80;0.30;;;;;;;;;;5088863;28;20489;-31
2021/12/11 00:08:41;;;;;;;0.75;0.50;;;;;;;;;;5088582;28;20502;-31
2021/12/11 00:11:16;;;;;;;0.70;0.40;;;;;;;;;;5088157;28;20039;-30
2021/12/11 00:13:42;;;;;;;1.00;0.50;;;;;;;;;;5088679;28;20028;-32
2021/12/11 00:16:09;;;;;;;0.60;0.40;;;;;;;;;;5088055;28;20440;-31
2021/12/11 00:18:34;;;;;;;0.77;0.45;;;;;;;;;;5088248;28;20068;-28
2021/12/11 00:21:03;;;;;;;0.45;0.38;;;;;;;;;;5088612;28;20093;-29
2021/12/11 00:23:39;;;;;;;0.55;0.40;;;;;;;;;;5088026;28;20616;-31
2021/12/11 00:26:05;;;;;;;0.60;0.43;;;;;;;;;;5088182;28;20035;-28
2021/12/11 00:28:31;;;;;;;0.40;0.40;;;;;;;;;;5087912;28;20133;-33
2021/12/11 00:30:56;;;;;;;0.73;0.50;;;;;;;;;;5088217;28;20505;-35
2021/12/11 00:33:25;;;;;;;0.65;0.30;;;;;;;;;;5088152;28;20028;-34
2021/12/11 00:35:52;;;;;;;1.02;0.40;;;;;;;;;;5088247;28;20028;-31
2021/12/11 00:38:20;;;;;;;0.43;0.40;;;;;;;;;;5087703;28;20533;-34
2021/12/11 00:40:46;;;;;;;0.30;0.30;;;;;;;;;;5087974;28;20016;-35
2021/12/11 00:43:15;;;;;;;0.50;0.32;;;;;;;;;;5088023;28;20020;-30
2021/12/11 00:45:41;;;;;;;0.70;0.43;;;;;;;;;;5087878;28;20031;-31
2021/12/11 00:48:12;;;;;;;0.40;0.38;;;;;;;;;;5087969;28;20024;-34
2021/12/11 00:50:53;;;;;;;0.90;0.40;;;;;;;;;;5088333;28;20024;-30
2021/12/11 00:53:25;;;;;;;0.60;0.30;;;;;;;;;;5087630;28;20035;-33
2021/12/11 00:55:53;;;;;;;0.88;0.55;;;;;;;;;;5087762;28;20020;-31
2021/12/11 00:58:29;;;;;;;0.40;0.22;;;;;;;;;;5069076;28;20040;-31
2021/12/11 01:01:19;;;;;;;0.43;0.30;;;;;;;;;;5070639;28;20399;-29
2021/12/11 01:04:05;;;;;;;0.40;0.30;;;;;;;;;;5072433;28;20035;-34
2021/12/11 01:06:39;;;;;;;0.32;0.30;;;;;;;;;;5087600;28;20052;-32
2021/12/11 01:09:13;;;;;;;0.25;0.20;;;;;;;;;;5087559;28;20032;-31
2021/12/11 01:11:43;;;;;;;0.55;0.30;;;;;;;;;;5087329;28;20387;-32
2021/12/11 01:14:51;;;;;;;0.65;0.40;;;;;;;;;;5085940;28;20025;-30
2021/12/11 01:17:19;;;;;;;0.70;0.40;;;;;;;;;;5083834;28;20506;-30
2021/12/11 01:19:45;;;;;;;0.50;0.30;;;;;;;;;;5087623;28;20036;-30
2021/12/11 01:22:31;;;;;;;0.50;0.30;;;;;;;;;;5087285;28;20703;-29
2021/12/11 01:24:56;;;;;;;0.50;0.30;;;;;;;;;;5087221;28;20433;-35
2021/12/11 01:27:23;;;;;;;0.30;0.30;;;;;;;;;;5086781;28;20028;-30
2021/12/11 01:29:56;;;;;;;0.38;0.28;;;;;;;;;;5102626;28;20044;-31
2021/12/11 01:32:22;;;;;;;0.60;0.30;;;;;;;;;;5107577;28;20031;-34
2021/12/11 01:34:47;;;;;;;0.65;0.40;;;;;;;;;;5094735;28;20391;-29
2021/12/11 01:37:14;;;;;;;0.47;0.40;;;;;;;;;;5086809;28;20100;-31
2021/12/11 01:39:40;;;;;;;0.38;0.30;;;;;;;;;;5087076;28;20028;-29
2021/12/11 01:42:08;;;;;;;0.50;0.30;;;;;;;;;;5086958;28;20743;-32
2021/12/11 01:44:34;;;;;;;0.20;0.20;;;;;;;;;;5087278;28;20031;-30
2021/12/11 01:47:12;;;;;;;0.32;0.30;;;;;;;;;;5086846;28;20035;-30
2021/12/11 01:49:39;;;;;;;0.40;0.30;;;;;;;;;;5087182;28;20107;-30
2021/12/11 01:52:18;;;;;;;0.50;0.25;;;;;;;;;;5065089;28;20107;-31
2021/12/11 01:54:44;;;;;;;1.00;0.40;;;;;;;;;;5066757;28;20032;-32
2021/12/11 01:57:22;;;;;;;0.80;0.40;;;;;;;;;;5065925;28;20487;-30
2021/12/11 01:59:53;;;;;;;0.80;0.50;;;;;;;;;;5066357;28;20024;-31
2021/12/11 02:02:24;;;;;;;0.93;0.40;;;;;;;;;;5071274;28;20215;-31
2021/12/11 02:04:53;;;;;;;0.77;0.28;;;;;;;;;;5085821;28;20024;-31
2021/12/11 02:07:22;;;;;;;0.60;0.40;;;;;;;;;;5085616;28;20482;-33
2021/12/11 02:09:50;;;;;;;0.65;0.50;;;;;;;;;;5085868;28;20169;-28
2021/12/11 02:12:22;;;;;;;0.57;0.40;;;;;;;;;;5085184;28;20028;-30
2021/12/11 02:14:50;;;;;;;0.60;0.40;;;;;;;;;;5071925;28;20036;-30
2021/12/11 02:17:31;;;;;;;0.90;0.50;;;;;;;;;;5065208;28;20029;-30
2021/12/11 02:19:57;;;;;;;0.68;0.40;;;;;;;;;;5065977;28;20033;-31
2021/12/11 02:22:29;;;;;;;0.75;0.40;;;;;;;;;;5065761;28;20036;-31
2021/12/11 02:24:56;;;;;;;0.40;0.35;;;;;;;;;;5065719;28;20021;-31
2021/12/11 02:27:32;;;;;;;0.43;0.30;;;;;;;;;;5065100;28;20131;-36
2021/12/11 02:30:30;;;;;;;0.63;0.47;;;;;;;;;;5065456;28;20613;-29
2021/12/11 02:33:13;;;;;;;0.45;0.32;;;;;;;;;;5065726;28;20060;-32
2021/12/11 02:36:08;;;;;;;0.40;0.32;;;;;;;;;;5065565;28;20033;-34
2021/12/11 02:38:43;;;;;;;0.52;0.52;;;;;;;;;;5065874;28;20465;-32
2021/12/11 02:41:14;;;;;;;0.40;0.40;;;;;;;;;;5065274;28;20048;-32
2021/12/11 02:43:43;;;;;;;0.75;0.43;;;;;;;;;;5065734;28;20052;-34
2021/12/11 02:46:22;;;;;;;1.00;0.50;;;;;;;;;;5064387;28;20040;-32
2021/12/11 02:49:01;;;;;;;0.57;0.40;;;;;;;;;;5064379;28;20028;-35
2021/12/11 02:51:45;;;;;;;0.82;0.32;;;;;;;;;;5065625;28;20024;-30
2021/12/11 02:54:23;;;;;;;1.42;0.55;;;;;;;;;;5064901;28;20025;-32
2021/12/11 02:56:54;;;;;;;0.40;0.40;;;;;;;;;;5065041;28;20024;-32
2021/12/11 02:59:23;;;;;;;0.65;0.40;;;;;;;;;;5065201;28;20031;-31
2021/12/11 03:02:07;;;;;;;2.80;0.50;;;;;;;;;;5065304;28;20036;-33
2021/12/11 03:04:41;;;;;;;0.88;0.55;;;;;;;;;;5065248;28;20064;-32
2021/12/11 03:07:09;;;;;;;0.50;0.50;;;;;;;;;;5064785;28;20107;-33
2021/12/11 03:09:37;;;;;;;0.40;0.40;;;;;;;;;;5064868;28;20047;-35
2021/12/11 03:12:05;;;;;;;2.95;0.50;;;;;;;;;;5065018;28;20028;-34
2021/12/11 03:14:30;;;;;;;1.05;0.50;;;;;;;;;;5064534;28;20033;-32
2021/12/11 03:16:56;;;;;;;1.15;0.50;;;;;;;;;;5065052;28;20414;-32
2021/12/11 03:19:25;;;;;;;0.50;0.43;;;;;;;;;;5065131;28;20040;-29
2021/12/11 03:21:50;;;;;;;0.60;0.40;;;;;;;;;;5071177;28;20028;-32
2021/12/11 03:24:16;;;;;;;0.30;0.30;;;;;;;;;;5085150;28;20133;-31
2021/12/11 03:26:42;;;;;;;0.50;0.32;;;;;;;;;;5085278;28;20028;-31
2021/12/11 03:29:08;;;;;;;0.30;0.30;;;;;;;;;;5084940;28;20051;-34
2021/12/11 03:31:36;;;;;;;0.60;0.50;;;;;;;;;;5084807;28;20031;-30
2021/12/11 03:34:02;;;;;;;0.60;0.45;;;;;;;;;;5085224;28;20071;-33
2021/12/11 03:36:27;;;;;;;0.65;0.50;;;;;;;;;;5084951;28;20052;-31
2021/12/11 03:38:57;;;;;;;0.98;0.52;;;;;;;;;;5089180;28;20141;-30
2021/12/11 03:41:23;;;;;;;0.47;0.40;;;;;;;;;;5088572;28;20028;-30
2021/12/11 03:43:49;;;;;;;0.90;0.50;;;;;;;;;;5088935;28;20024;-34
2021/12/11 03:46:15;;;;;;;0.75;0.50;;;;;;;;;;5089383;28;20031;-35
2021/12/11 03:48:44;;;;;;;0.57;0.47;;;;;;;;;;5071371;28;20028;-33
2021/12/11 03:51:11;;;;;;;0.20;0.20;;;;;;;;;;5088304;28;20027;-31
2021/12/11 03:53:37;;;;;;;0.70;0.40;;;;;;;;;;5089040;28;20513;-36
2021/12/11 03:56:04;;;;;;;0.50;0.50;;;;;;;;;;5088994;28;20044;-33
2021/12/11 03:58:30;;;;;;;0.30;0.30;;;;;;;;;;5087949;28;20579;-31
2021/12/11 04:01:14;;;;;;;0.73;0.60;;;;;;;;;;5089014;28;20040;-31
2021/12/11 04:03:42;;;;;;;0.85;0.50;;;;;;;;;;5070750;28;20078;-31
2021/12/11 04:06:08;;;;;;;0.75;0.55;;;;;;;;;;5087763;28;20093;-30
2021/12/11 04:08:40;;;;;;;0.90;0.52;;;;;;;;;;5088560;28;20028;-33
2021/12/11 04:11:06;;;;;;;0.50;0.40;;;;;;;;;;5088600;28;20042;-30
2021/12/11 04:13:32;;;;;;;0.90;0.40;;;;;;;;;;5088186;28;20529;-34
2021/12/11 04:15:57;;;;;;;0.70;0.50;;;;;;;;;;5088583;28;20032;-30
2021/12/11 04:18:23;;;;;;;0.55;0.32;;;;;;;;;;5088505;28;20036;-34
2021/12/11 04:20:49;;;;;;;0.47;0.47;;;;;;;;;;5088508;28;20028;-32
2021/12/11 04:23:16;;;;;;;0.77;0.50;;;;;;;;;;5088765;28;20028;-32
2021/12/11 04:25:42;;;;;;;0.50;0.38;;;;;;;;;;5088198;28;20123;-30
2021/12/11 04:28:08;;;;;;;0.40;0.35;;;;;;;;;;5088310;28;20103;-35
2021/12/11 04:30:34;;;;;;;0.98;0.65;;;;;;;;;;5088119;28;20024;-30
2021/12/11 04:32:59;;;;;;;0.55;0.45;;;;;;;;;;5088350;28;20028;-30
2021/12/11 04:35:28;;;;;;;0.30;0.30;;;;;;;;;;5087820;28;20031;-34
2021/12/11 04:37:59;;;;;;;0.40;0.40;;;;;;;;;;5087983;28;20085;-32
2021/12/11 04:40:28;;;;;;;0.55;0.40;;;;;;;;;;5087924;28;20081;-31
2021/12/11 04:43:04;;;;;;;0.65;0.45;;;;;;;;;;5087733;28;20056;-33
2021/12/11 04:45:34;;;;;;;0.65;0.45;;;;;;;;;;5088049;28;20036;-31
2021/12/11 04:48:16;;;;;;;0.60;0.50;;;;;;;;;;5069373;28;20020;-33
2021/12/11 04:50:50;;;;;;;0.85;0.50;;;;;;;;;;5087619;28;20028;-32
2021/12/11 05:01:51;;;;;;;0.30;0.20;;;;;;;;;;5087490;28;20589;-29
2021/12/11 05:07:18;;;;;;;0.57;0.45;;;;;;;;;;5087649;28;20092;-35
2021/12/11 05:10:10;;;;;;;0.73;0.45;;;;;;;;;;5087523;28;20032;-31
2021/12/11 05:12:35;;;;;;;0.25;0.20;;;;;;;;;;5087250;28;20032;-34
2021/12/11 05:15:21;;;;;;;0.28;0.28;;;;;;;;;;5086554;28;20016;-30
2021/12/11 05:17:46;;;;;;;1.20;0.32;;;;;;;;;;5087042;28;20405;-30
2021/12/11 05:20:13;;;;;;;0.35;0.30;;;;;;;;;;5087195;28;20035;-34
2021/12/11 05:22:39;;;;;;;0.68;0.40;;;;;;;;;;5069469;28;20102;-31
2021/12/11 05:25:05;;;;;;;0.47;0.40;;;;;;;;;;5069248;28;20656;-33
2021/12/11 05:27:31;;;;;;;0.40;0.30;;;;;;;;;;5086962;28;20099;-32
2021/12/11 05:29:56;;;;;;;0.55;0.40;;;;;;;;;;5087096;28;20189;-34
2021/12/11 05:32:23;;;;;;;0.40;0.40;;;;;;;;;;5087365;28;20185;-37
2021/12/11 05:34:49;;;;;;;0.50;0.32;;;;;;;;;;5087487;28;20373;-30
2021/12/11 05:37:14;;;;;;;0.40;0.30;;;;;;;;;;5086226;28;20111;-34
2021/12/11 05:39:40;;;;;;;0.45;0.38;;;;;;;;;;5086641;28;20032;-33
2021/12/11 05:42:06;;;;;;;2.60;0.40;;;;;;;;;;5084806;28;20115;-31
2021/12/11 05:44:31;;;;;;;0.70;0.43;;;;;;;;;;5086171;28;20020;-28
2021/12/11 05:46:57;;;;;;;0.35;0.35;;;;;;;;;;5086417;28;20512;-32
2021/12/11 05:49:24;;;;;;;0.40;0.35;;;;;;;;;;5077144;28;20024;-29
2021/12/11 05:51:49;;;;;;;0.57;0.30;;;;;;;;;;5076382;28;20097;-30
2021/12/11 05:54:18;;;;;;;0.30;0.28;;;;;;;;;;5077645;28;20414;-29
2021/12/11 05:56:43;;;;;;;0.50;0.30;;;;;;;;;;5072973;28;20017;-31
2021/12/11 05:59:10;;;;;;;0.98;0.28;;;;;;;;;;5075886;28;20047;-32
2021/12/11 06:01:46;;;;;;;0.60;0.30;;;;;;;;;;5073035;28;20024;-32
2021/12/11 06:04:19;;;;;;;2.28;0.50;;;;;;;;;;5079132;28;20028;-32
2021/12/11 06:06:44;;;;;;;4.03;0.40;;;;;;;;;;5081528;28;20082;-34
2021/12/11 06:09:12;;;;;;;3.90;0.38;;;;;;;;;;5063653;28;20463;-31
2021/12/11 06:11:38;;;;;;;20.80;1.35;;;;;;;;;;5082448;28;20028;-30
2021/12/11 06:14:03;;;;;;;1.10;0.35;;;;;;;;;;5084043;28;20036;-30
2021/12/11 06:16:29;;;;;;;4.47;0.40;;;;;;;;;;5083695;28;20024;-31
2021/12/11 06:18:54;;;;;;;3.40;0.32;;;;;;;;;;5083507;28;20035;-31
2021/12/11 06:21:20;;;;;;;3.63;0.60;;;;;;;;;;5083509;28;20028;-31
2021/12/11 06:23:45;;;;;;;0.40;0.40;;;;;;;;;;5083234;28;20457;-30
2021/12/11 06:26:11;;;;;;;1.75;0.60;;;;;;;;;;5083692;28;20032;-32
2021/12/11 06:28:37;;;;;;;0.60;0.40;;;;;;;;;;5083058;28;20044;-29
2021/12/11 06:31:03;;;;;;;0.70;0.45;;;;;;;;;;5084038;28;20040;-29
2021/12/11 06:33:29;;;;;;;1.05;0.60;;;;;;;;;;5083884;28;20036;-32
2021/12/11 06:35:58;;;;;;;5.85;0.70;;;;;;;;;;5083642;28;20024;-33
2021/12/11 06:38:25;;;;;;;0.70;0.50;;;;;;;;;;5083491;28;20093;-33
2021/12/11 06:40:50;;;;;;;1.67;0.40;;;;;;;;;;5082754;28;20058;-35
2021/12/11 06:43:16;;;;;;;0.80;0.30;;;;;;;;;;5083539;28;20062;-31
2021/12/11 06:45:41;;;;;;;0.35;0.30;;;;;;;;;;5082848;28;20513;-31
2021/12/11 06:48:07;;;;;;;0.20;0.20;;;;;;;;;;5083059;28;20455;-29
2021/12/11 06:50:32;;;;;;;0.57;0.40;;;;;;;;;;5082891;28;20044;-33
2021/12/11 06:52:59;;;;;;;1.40;0.50;;;;;;;;;;5057584;28;20043;-32
2021/12/11 06:55:25;;;;;;;3.03;0.50;;;;;;;;;;5048445;28;20117;-34
2021/12/11 06:57:50;;;;;;;1.13;0.50;;;;;;;;;;5072576;28;20115;-33
2021/12/11 07:00:17;;;;;;;0.50;0.30;;;;;;;;;;5071182;28;20020;-30
2021/12/11 07:02:43;;;;;;;0.47;0.40;;;;;;;;;;5077068;28;20722;-33
2021/12/11 07:05:11;;;;;;;0.70;0.52;;;;;;;;;;5073640;28;20181;-30
2021/12/11 07:07:37;;;;;;;0.50;0.40;;;;;;;;;;5082967;28;20431;-34
2021/12/11 07:10:06;;;;;;;0.32;0.20;;;;;;;;;;5082630;28;20072;-30
2021/12/11 07:12:32;;;;;;;2.88;0.40;;;;;;;;;;5082227;28;20067;-30
2021/12/11 07:14:57;;;;;;;4.68;0.80;;;;;;;;;;5082440;28;20028;-32
2021/12/11 07:17:23;;;;;;;4.75;0.55;;;;;;;;;;5082395;28;20127;-34
2021/12/11 07:19:49;;;;;;;1.13;0.50;;;;;;;;;;5083086;28;20024;-32
2021/12/11 07:22:14;;;;;;;6.07;0.70;;;;;;;;;;5082469;28;20032;-30
2021/12/11 07:24:44;;;;;;;0.98;0.57;;;;;;;;;;5082071;28;20016;-34
2021/12/11 07:27:10;;;;;;;3.50;1.10;;;;;;;;;;5082945;28;20302;-30
2021/12/11 07:29:36;;;;;;;4.10;0.50;;;;;;;;;;5082406;28;20595;-33
2021/12/11 07:32:02;;;;;;;5.15;0.50;;;;;;;;;;5082724;28;20057;-34
2021/12/11 07:34:27;;;;;;;2.45;0.68;;;;;;;;;;5080205;28;20060;-33
2021/12/11 07:36:56;;;;;;;4.60;0.93;;;;;;;;;;5081907;28;20524;-34
2021/12/11 07:39:21;;;;;;;6.88;2.28;;;;;;;;;;5064013;28;20062;-31
2021/12/11 07:41:47;;;;;;;6.95;2.97;;;;;;;;;;5082099;28;20933;-33
2021/12/11 07:44:13;;;;;;;15.48;5.45;;;;;;;;;;5081790;28;20703;-30
2021/12/11 07:46:38;;;;;;;15.15;6.78;;;;;;;;;;5082334;28;20024;-37
2021/12/11 07:49:04;;;;;;;23.30;12.20;;;;;;;;;;5082001;28;20024;-30
2021/12/11 07:51:30;;;;;;;30.33;14.50;;;;;;;;;;5081805;28;20127;-32
2021/12/11 07:53:55;;;;;;;34.95;18.00;;;;;;;;;;5081828;28;20024;-35
2021/12/11 07:56:21;;;;;;;62.85;27.55;;;;;;;;;;5082177;28;20111;-35
2021/12/11 07:58:48;;;;;;;92.88;47.00;;;;;;;;;;5081722;28;20040;-29
2021/12/11 08:01:13;;;;;;;90.10;47.40;;;;;;;;;;5081998;28;20024;-29
2021/12/11 08:03:39;;;;;;;82.20;44.38;;;;;;;;;;5082133;28;20634;-29
2021/12/11 08:06:05;;;;;;;78.47;43.90;;;;;;;;;;5081502;28;20051;-30
2021/12/11 08:08:31;;;;;;;98.70;50.80;;;;;;;;;;5081678;28;20036;-29
2021/12/11 08:10:58;;;;;;;89.80;47.17;;;;;;;;;;5081984;28;20421;-34
2021/12/11 08:13:24;;;;;;;92.50;48.17;;;;;;;;;;5081690;28;20502;-31
2021/12/11 08:15:50;;;;;;;97.75;50.63;;;;;;;;;;5081761;28;20092;-31
2021/12/11 08:18:16;;;;;;;153.32;79.65;;;;;;;;;;5081555;28;20418;-35
2021/12/11 08:20:42;;;;;;;159.85;81.45;;;;;;;;;;5081502;28;20110;-30
2021/12/11 08:23:09;;;;;;;143.57;75.72;;;;;;;;;;5074250;28;20434;-36
2021/12/11 08:25:35;;;;;;;178.13;88.82;;;;;;;;;;5077313;28;20455;-31
2021/12/11 08:28:01;;;;;;;138.25;67.90;;;;;;;;;;5077573;28;20032;-33
2021/12/11 08:30:28;;;;;;;144.30;66.72;;;;;;;;;;5071142;28;20085;-34
2021/12/11 08:32:54;;;;;;;197.35;100.78;;;;;;;;;;5085313;28;20036;-31
2021/12/11 08:35:19;;;;;;;252.23;118.15;;;;;;;;;;5061420;28;20024;-29
2021/12/11 08:37:47;;;;;;;239.48;112.85;;;;;;;;;;5084643;28;20024;-28
2021/12/11 08:40:15;;;;;;;226.15;108.30;;;;;;;;;;5085388;28;20047;-30
2021/12/11 08:42:40;;;;;;;196.95;97.70;;;;;;;;;;5080508;28;20050;-29
2021/12/11 08:45:09;;;;;;;188.48;90.70;;;;;;;;;;5084996;28;20028;-30
2021/12/11 08:47:39;;;;;;;182.93;85.90;;;;;;;;;;5084240;28;20042;-28
2021/12/11 08:50:05;;;;;;;161.70;78.90;;;;;;;;;;5084929;28;20469;-31
2021/12/11 08:52:36;;;;;;;148.93;71.93;;;;;;;;;;5084980;28;20036;-31
2021/12/11 08:55:02;;;;;;;150.88;69.65;;;;;;;;;;5085010;28;20020;-29
2021/12/11 08:57:30;;;;;;;136.00;64.88;;;;;;;;;;5084845;28;20031;-32
2021/12/11 08:59:59;;;;;;;134.55;62.53;;;;;;;;;;5083075;28;20032;-30
2021/12/11 09:02:56;;;;;;;153.02;72.85;;;;;;;;;;5073310;28;20052;-31
2021/12/11 09:05:25;;;;;;;152.65;74.25;;;;;;;;;;5047912;28;20047;-37
2021/12/11 09:08:01;;;;;;;139.60;69.60;;;;;;;;;;5075447;28;20012;-30
2021/12/11 09:10:48;;;;;;;144.75;71.78;;;;;;;;;;5066805;28;20115;-28
2021/12/11 09:13:19;;;;;;;138.45;67.63;;;;;;;;;;5084350;28;20044;-27
2021/12/11 09:16:00;;;;;;;129.77;61.20;;;;;;;;;;5085490;28;20032;-32
2021/12/11 09:18:38;;;;;;;102.45;51.13;;;;;;;;;;5073200;28;20098;-33
2021/12/11 09:21:25;;;;;;;103.97;49.28;;;;;;;;;;5073116;28;20106;-29
2021/12/11 09:24:05;;;;;;;109.00;53.53;;;;;;;;;;5082619;28;20089;-30
2021/12/11 09:26:40;;;;;;;92.43;48.20;;;;;;;;;;5080891;28;20043;-33
2021/12/11 09:29:14;;;;;;;99.13;47.25;;;;;;;;;;5082238;28;20044;-32
2021/12/11 09:31:44;;;;;;;90.25;45.38;;;;;;;;;;5073269;28;20035;-32
2021/12/11 09:34:17;;;;;;;84.35;42.47;;;;;;;;;;5083123;28;20024;-29
2021/12/11 09:36:50;;;;;;;76.88;40.22;;;;;;;;;;5077120;28;20585;-33
2021/12/11 09:39:19;;;;;;;75.97;39.80;;;;;;;;;;5084888;28;20039;-31
2021/12/11 09:41:44;;;;;;;76.18;39.42;;;;;;;;;;5084115;28;20506;-31
2021/12/11 09:44:16;;;;;;;69.43;33.25;;;;;;;;;;5083344;28;20039;-33
2021/12/11 09:46:45;;;;;;;72.68;37.22;;;;;;;;;;5084306;28;20043;-32
2021/12/11 09:49:13;;;;;;;67.00;35.00;;;;;;;;;;5083848;28;20509;-28
2021/12/11 09:51:42;;;;;;;62.33;32.03;;;;;;;;;;5066080;28;20459;-33
2021/12/11 09:54:11;;;;;;;59.38;31.15;;;;;;;;;;5084247;28;20043;-30
2021/12/11 09:56:40;;;;;;;50.20;29.33;;;;;;;;;;5083478;28;20028;-29
2021/12/11 09:59:09;;;;;;;65.68;30.17;;;;;;;;;;5083139;28;20036;-30
2021/12/11 10:01:37;;;;;;;53.17;28.23;;;;;;;;;;5083401;28;20088;-30
2021/12/11 10:04:17;;;;;;;61.38;29.80;;;;;;;;;;5083667;28;20033;-30
2021/12/11 10:09:33;;;;;;;53.13;26.45;;;;;;;;;;5083711;28;20506;-31
2021/12/11 10:12:11;;;;;;;50.95;25.35;;;;;;;;;;5063170;28;20269;-30
2021/12/11 10:14:39;;;;;;;44.20;23.50;;;;;;;;;;5063749;28;20039;-31
2021/12/11 10:17:10;;;;;;;45.58;23.02;;;;;;;;;;5063126;28;20029;-29
2021/12/11 10:19:37;;;;;;;38.90;21.65;;;;;;;;;;5065438;28;20025;-29
2021/12/11 10:22:15;;;;;;;39.92;21.10;;;;;;;;;;5070051;28;20119;-33
2021/12/11 10:24:41;;;;;;;37.47;19.33;;;;;;;;;;5064902;28;20024;-33
2021/12/11 10:27:09;;;;;;;33.78;18.52;;;;;;;;;;5063958;28;20029;-33
2021/12/11 10:29:34;;;;;;;38.00;18.30;;;;;;;;;;5063971;28;20048;-32
2021/12/11 10:32:05;;;;;;;27.65;14.27;;;;;;;;;;5081373;28;20032;-31
2021/12/11 10:34:31;;;;;;;23.48;13.90;;;;;;;;;;5078747;28;20025;-33
2021/12/11 10:37:04;;;;;;;161.65;48.55;;;;;;;;;;5067349;28;20024;-33
2021/12/11 10:39:29;;;;;;;55.22;21.00;;;;;;;;;;5077481;28;20035;-37
2021/12/11 10:41:55;;;;;;;46.33;18.23;;;;;;;;;;5081794;28;20034;-34
2021/12/11 10:44:24;;;;;;;39.33;15.98;;;;;;;;;;5083234;28;20076;-32
2021/12/11 10:47:15;;;;;;;42.13;16.73;;;;;;;;;;5082003;28;20655;-31
2021/12/11 10:49:41;;;;;;;36.53;15.05;;;;;;;;;;5081568;28;20032;-31
2021/12/11 10:52:33;;;;;;;37.05;15.10;;;;;;;;;;5082027;28;20513;-29
2021/12/11 10:55:00;;;;;;;30.60;14.50;;;;;;;;;;5079356;28;20078;-31
2021/12/11 10:57:27;;;;;;;29.67;14.30;;;;;;;;;;5081988;28;20555;-31
2021/12/11 10:59:56;;;;;;;29.30;14.27;;;;;;;;;;5082063;28;20024;-33
2021/12/11 11:02:26;;;;;;;31.98;14.80;;;;;;;;;;5081130;28;20111;-32
2021/12/11 11:04:54;;;;;;;29.55;13.73;;;;;;;;;;5082203;28;20085;-30
2021/12/11 11:07:21;;;;;;;28.40;14.10;;;;;;;;;;5082644;28;20031;-32
2021/12/11 11:09:47;;;;;;;37.03;13.07;;;;;;;;;;5082521;28;20031;-32
2021/12/11 11:12:14;;;;;;;27.67;12.88;;;;;;;;;;5082418;28;20039;-29
2021/12/11 11:14:40;;;;;;;29.48;12.70;;;;;;;;;;5082123;28;20027;-32
2021/12/11 11:17:08;;;;;;;29.23;12.48;;;;;;;;;;5082924;28;20024;-34
2021/12/11 11:19:36;;;;;;;23.08;12.68;;;;;;;;;;5082412;28;20032;-30
2021/12/11 11:22:04;;;;;;;23.67;12.00;;;;;;;;;;5083298;28;20093;-33
2021/12/11 11:24:33;;;;;;;25.08;12.13;;;;;;;;;;5083273;28;20538;-30
2021/12/11 11:26:59;;;;;;;23.02;11.45;;;;;;;;;;5082800;28;20504;-31
2021/12/11 11:29:25;;;;;;;24.95;12.15;;;;;;;;;;5094874;28;20043;-32
2021/12/11 11:31:53;;;;;;;19.60;11.23;;;;;;;;;;5103248;28;20028;-28
2021/12/11 11:34:19;;;;;;;23.17;11.73;;;;;;;;;;5091802;28;20043;-29
2021/12/11 11:36:45;;;;;;;24.23;11.02;;;;;;;;;;5082395;28;20134;-33
2021/12/11 11:39:12;;;;;;;22.23;11.52;;;;;;;;;;5082847;28;20032;-33
2021/12/11 11:42:05;;;;;;;22.27;11.32;;;;;;;;;;5064398;28;20436;-30
2021/12/11 11:44:31;;;;;;;24.30;10.77;;;;;;;;;;5079998;28;20203;-33
2021/12/11 11:46:58;;;;;;;23.70;11.00;;;;;;;;;;5082819;28;20142;-32
2021/12/11 11:49:24;;;;;;;22.10;11.15;;;;;;;;;;5082363;28;20036;-34
2021/12/11 11:51:55;;;;;;;20.13;10.50;;;;;;;;;;5082514;28;20046;-32
2021/12/11 11:54:21;;;;;;;19.00;9.95;;;;;;;;;;5082488;28;20061;-36
2021/12/11 11:56:53;;;;;;;19.70;9.55;;;;;;;;;;5082356;28;20028;-29
2021/12/11 11:59:19;;;;;;;16.88;9.68;;;;;;;;;;5085695;28;20035;-32
2021/12/11 12:02:01;;;;;;;18.85;9.50;;;;;;;;;;5086284;28;20016;-30
2021/12/11 12:04:26;;;;;;;19.38;9.82;;;;;;;;;;5086219;28;20054;-34
2021/12/11 12:06:59;;;;;;;19.13;9.25;;;;;;;;;;5086341;28;20028;-32
2021/12/11 12:09:25;;;;;;;16.33;8.90;;;;;;;;;;5086433;28;20077;-30
2021/12/11 12:11:51;;;;;;;15.13;8.95;;;;;;;;;;5086594;28;20036;-32
2021/12/11 12:14:20;;;;;;;16.48;8.63;;;;;;;;;;5086972;28;20059;-30
2021/12/11 12:16:45;;;;;;;14.60;8.82;;;;;;;;;;5086053;28;20035;-31
2021/12/11 12:19:11;;;;;;;17.73;8.55;;;;;;;;;;5067926;28;20032;-29
2021/12/11 12:21:38;;;;;;;13.40;7.82;;;;;;;;;;5085729;28;20067;-31
2021/12/11 12:24:04;;;;;;;15.57;8.50;;;;;;;;;;5085747;28;20443;-33
2021/12/11 12:26:30;;;;;;;13.27;7.43;;;;;;;;;;5085636;28;20032;-28
2021/12/11 12:28:56;;;;;;;15.50;7.85;;;;;;;;;;5085545;28;20133;-30
2021/12/11 12:31:32;;;;;;;12.65;7.30;;;;;;;;;;5086368;28;20871;-35
2021/12/11 12:33:57;;;;;;;14.52;7.65;;;;;;;;;;5085408;28;20111;-30
2021/12/11 12:36:23;;;;;;;17.10;7.90;;;;;;;;;;5085716;28;20039;-32
2021/12/11 12:38:48;;;;;;;13.65;7.80;;;;;;;;;;5086054;28;20036;-31
2021/12/11 12:41:18;;;;;;;14.63;7.40;;;;;;;;;;5085862;28;20547;-29
2021/12/11 12:46:17;;;;;;;13.73;7.55;;;;;;;;;;5085889;28;20039;-31
2021/12/11 12:48:42;;;;;;;12.20;7.00;;;;;;;;;;5085545;28;20032;-31
2021/12/11 12:51:09;;;;;;;12.85;6.78;;;;;;;;;;5085267;28;20085;-31
2021/12/11 12:53:35;;;;;;;11.20;6.43;;;;;;;;;;5085412;28;20059;-31
2021/12/11 12:56:13;;;;;;;12.25;7.15;;;;;;;;;;5084583;28;20120;-30
2021/12/11 12:58:42;;;;;;;10.55;6.72;;;;;;;;;;5084572;28;20032;-30
2021/12/11 13:01:20;;;;;;;10.52;6.07;;;;;;;;;;5084153;28;20566;-29
2021/12/11 13:03:46;;;;;;;12.73;6.45;;;;;;;;;;5085483;28;20099;-28
2021/12/11 13:06:16;;;;;;;11.05;6.00;;;;;;;;;;5084541;28;20111;-29
2021/12/11 13:08:45;;;;;;;10.15;5.85;;;;;;;;;;5084642;28;20036;-32
2021/12/11 13:11:14;;;;;;;10.82;6.25;;;;;;;;;;5084395;28;20067;-31
2021/12/11 13:13:39;;;;;;;8.68;5.45;;;;;;;;;;5085141;28;20107;-29
2021/12/11 13:16:29;;;;;;;9.80;4.88;;;;;;;;;;5084993;28;20115;-31
2021/12/11 13:19:05;;;;;;;10.65;5.63;;;;;;;;;;5084726;28;20062;-35
2021/12/11 13:21:45;;;;;;;9.95;5.45;;;;;;;;;;5084940;28;20053;-31
2021/12/11 13:24:12;;;;;;;8.68;5.10;;;;;;;;;;5085154;28;20032;-30
2021/12/11 13:26:42;;;;;;;7.82;4.95;;;;;;;;;;5085100;28;20035;-33
2021/12/11 13:29:11;;;;;;;10.27;4.93;;;;;;;;;;5085407;28;20044;-29
2021/12/11 13:31:46;;;;;;;8.75;4.95;;;;;;;;;;5084703;28;20036;-31
2021/12/11 13:34:12;;;;;;;8.82;5.03;;;;;;;;;;5084874;28;20035;-31
2021/12/11 13:36:37;;;;;;;9.48;5.07;;;;;;;;;;5085017;28;20032;-34
2021/12/11 13:39:08;;;;;;;8.77;4.80;;;;;;;;;;5084460;28;20280;-32
2021/12/11 13:41:38;;;;;;;8.80;4.72;;;;;;;;;;5085301;28;20555;-34
2021/12/11 13:44:04;;;;;;;8.20;4.80;;;;;;;;;;5084380;28;20069;-32
2021/12/11 13:46:29;;;;;;;10.32;5.00;;;;;;;;;;5084699;28;20103;-29
2021/12/11 13:48:55;;;;;;;8.20;4.72;;;;;;;;;;5084348;28;20992;-31
2021/12/11 13:51:24;;;;;;;8.07;4.63;;;;;;;;;;5084058;28;20073;-32
2021/12/11 13:53:50;;;;;;;7.82;4.50;;;;;;;;;;5083886;28;20032;-30
2021/12/11 13:56:29;;;;;;;6.85;4.50;;;;;;;;;;5084397;28;20477;-31
2021/12/11 13:58:55;;;;;;;6.97;4.43;;;;;;;;;;5083576;28;20092;-29
2021/12/11 14:01:27;;;;;;;6.63;4.18;;;;;;;;;;5084659;28;20032;-28
2021/12/11 14:03:53;;;;;;;7.38;4.47;;;;;;;;;;5084268;28;20024;-29
2021/12/11 14:06:20;;;;;;;7.47;4.15;;;;;;;;;;5084221;28;20119;-30
2021/12/11 14:08:46;;;;;;;7.90;4.43;;;;;;;;;;5084384;28;20636;-34
2021/12/11 14:11:14;;;;;;;5.95;3.95;;;;;;;;;;5083473;28;20028;-35
2021/12/11 14:13:40;;;;;;;8.63;3.83;;;;;;;;;;5084052;28;20027;-29
2021/12/11 14:16:07;;;;;;;6.00;3.95;;;;;;;;;;5084095;28;20028;-35
2021/12/11 14:18:32;;;;;;;8.75;4.32;;;;;;;;;;5083576;28;20031;-30
2021/12/11 14:20:58;;;;;;;6.15;3.83;;;;;;;;;;5083711;28;20073;-28
2021/12/11 14:23:26;;;;;;;6.93;3.83;;;;;;;;;;5084387;28;20027;-30
2021/12/11 14:25:52;;;;;;;6.25;3.50;;;;;;;;;;5083500;28;20117;-32
2021/12/11 14:28:19;;;;;;;6.75;3.60;;;;;;;;;;5083317;28;20518;-30
2021/12/11 14:30:46;;;;;;;5.47;3.38;;;;;;;;;;5077131;28;20074;-32
2021/12/11 14:33:11;;;;;;;4.60;3.35;;;;;;;;;;5063205;28;20032;-30
2021/12/11 14:35:38;;;;;;;5.15;3.30;;;;;;;;;;5063352;28;20105;-31
2021/12/11 14:38:06;;;;;;;5.65;3.45;;;;;;;;;;5064056;28;20036;-29
2021/12/11 14:40:32;;;;;;;5.63;3.53;;;;;;;;;;5063685;28;20024;-30
2021/12/11 14:42:58;;;;;;;5.22;3.10;;;;;;;;;;5045272;28;20024;-29
2021/12/11 14:45:26;;;;;;;4.60;3.40;;;;;;;;;;5063213;28;20499;-31
2021/12/11 14:47:51;;;;;;;5.40;3.47;;;;;;;;;;5062567;28;20047;-29
2021/12/11 14:50:18;;;;;;;4.32;3.13;;;;;;;;;;5045119;28;20020;-30
2021/12/11 14:52:44;;;;;;;6.10;3.28;;;;;;;;;;5062996;28;20110;-30
2021/12/11 14:55:17;;;;;;;4.78;3.05;;;;;;;;;;5063003;28;20046;-29
2021/12/11 14:57:43;;;;;;;5.57;3.28;;;;;;;;;;5062857;28;20024;-28
2021/12/11 15:00:11;;;;;;;4.35;3.10;;;;;;;;;;5063108;28;20042;-29
2021/12/11 15:02:38;;;;;;;4.78;2.67;;;;;;;;;;5062533;28;20035;-32